sensor_id;sensor_type;location;lat;lon;timestamp;temperature;humidity
64689;DHT22;62504;46.070;14.492;2023-05-10T00:02:03;11.10;99.90
64689;DHT22;62504;46.070;14.492;2023-05-10T00:04:28;11.30;99.90
64689;DHT22;62504;46.070;14.492;2023-05-10T00:06:54;11.20;99.90
64689;DHT22;62504;46.070;14.492;2023-05-10T00:09:20;11.20;99.90
64689;DHT22;62504;46.070;14.492;2023-05-10T00:11:45;11.20;99.90
64689;DHT22;62504;46.070;14.492;2023-05-10T00:14:11;11.40;99.90
64689;DHT22;62504;46.070;14.492;2023-05-10T00:16:37;11.40;99.90
64689;DHT22;62504;46.070;14.492;2023-05-10T00:19:02;11.10;99.90
64689;DHT22;62504;46.070;14.492;2023-05-10T00:21:28;11.10;99.90
64689;DHT22;62504;46.070;14.492;2023-05-10T00:23:54;10.90;99.90
64689;DHT22;62504;46.070;14.492;2023-05-10T00:26:20;10.80;99.90
64689;DHT22;62504;46.070;14.492;2023-05-10T00:28:45;11.00;99.90
64689;DHT22;62504;46.070;14.492;2023-05-10T00:31:11;10.90;99.90
64689;DHT22;62504;46.070;14.492;2023-05-10T00:33:37;10.90;99.90
64689;DHT22;62504;46.070;14.492;2023-05-10T00:36:03;10.90;99.90
64689;DHT22;62504;46.070;14.492;2023-05-10T00:38:28;11.10;99.90
64689;DHT22;62504;46.070;14.492;2023-05-10T00:40:54;11.40;99.90
64689;DHT22;62504;46.070;14.492;2023-05-10T00:43:20;11.00;99.90
64689;DHT22;62504;46.070;14.492;2023-05-10T00:45:45;10.90;99.90
64689;DHT22;62504;46.070;14.492;2023-05-10T00:48:11;11.00;99.90
64689;DHT22;62504;46.070;14.492;2023-05-10T00:50:38;11.00;99.90
64689;DHT22;62504;46.070;14.492;2023-05-10T00:53:04;10.90;99.90
64689;DHT22;62504;46.070;14.492;2023-05-10T00:55:30;10.80;99.90
64689;DHT22;62504;46.070;14.492;2023-05-10T00:57:56;10.90;99.90
64689;DHT22;62504;46.070;14.492;2023-05-10T01:00:22;11.00;99.90
64689;DHT22;62504;46.070;14.492;2023-05-10T01:02:47;11.10;99.90
64689;DHT22;62504;46.070;14.492;2023-05-10T01:05:14;10.90;99.90
64689;DHT22;62504;46.070;14.492;2023-05-10T01:07:40;10.70;99.90
64689;DHT22;62504;46.070;14.492;2023-05-10T01:10:07;10.50;99.90
64689;DHT22;62504;46.070;14.492;2023-05-10T01:12:40;10.70;99.90
64689;DHT22;62504;46.070;14.492;2023-05-10T01:15:07;11.00;99.90
64689;DHT22;62504;46.070;14.492;2023-05-10T01:17:35;11.10;99.90
64689;DHT22;62504;46.070;14.492;2023-05-10T01:20:02;10.70;99.90
64689;DHT22;62504;46.070;14.492;2023-05-10T01:31:03;11.10;99.90
64689;DHT22;62504;46.070;14.492;2023-05-10T01:34:16;11.20;99.90
64689;DHT22;62504;46.070;14.492;2023-05-10T01:36:52;11.40;99.90
64689;DHT22;62504;46.070;14.492;2023-05-10T01:39:32;11.40;99.90
64689;DHT22;62504;46.070;14.492;2023-05-10T01:42:08;11.20;99.90
64689;DHT22;62504;46.070;14.492;2023-05-10T01:47:41;11.30;99.90
64689;DHT22;62504;46.070;14.492;2023-05-10T01:50:15;11.40;99.90
64689;DHT22;62504;46.070;14.492;2023-05-10T01:52:42;11.20;99.90
64689;DHT22;62504;46.070;14.492;2023-05-10T01:55:14;11.10;99.90
64689;DHT22;62504;46.070;14.492;2023-05-10T01:57:43;11.10;99.90
64689;DHT22;62504;46.070;14.492;2023-05-10T02:00:10;11.10;99.90
64689;DHT22;62504;46.070;14.492;2023-05-10T02:02:38;11.10;99.90
64689;DHT22;62504;46.070;14.492;2023-05-10T02:05:06;11.40;99.90
64689;DHT22;62504;46.070;14.492;2023-05-10T02:07:35;11.30;99.90
64689;DHT22;62504;46.070;14.492;2023-05-10T02:10:02;11.20;99.90
64689;DHT22;62504;46.070;14.492;2023-05-10T02:12:30;11.10;99.90
64689;DHT22;62504;46.070;14.492;2023-05-10T02:14:57;11.00;99.90
64689;DHT22;62504;46.070;14.492;2023-05-10T02:17:25;10.80;99.90
64689;DHT22;62504;46.070;14.492;2023-05-10T02:19:52;10.80;99.90
64689;DHT22;62504;46.070;14.492;2023-05-10T02:22:18;10.70;99.90
64689;DHT22;62504;46.070;14.492;2023-05-10T02:24:45;10.90;99.90
64689;DHT22;62504;46.070;14.492;2023-05-10T02:27:12;10.90;99.90
64689;DHT22;62504;46.070;14.492;2023-05-10T02:29:39;10.80;99.90
64689;DHT22;62504;46.070;14.492;2023-05-10T02:32:06;10.70;99.90
64689;DHT22;62504;46.070;14.492;2023-05-10T02:34:32;10.70;99.90
64689;DHT22;62504;46.070;14.492;2023-05-10T02:36:58;10.80;99.90
64689;DHT22;62504;46.070;14.492;2023-05-10T02:39:26;10.70;99.90
64689;DHT22;62504;46.070;14.492;2023-05-10T02:41:54;11.10;99.90
64689;DHT22;62504;46.070;14.492;2023-05-10T02:44:22;10.80;99.90
64689;DHT22;62504;46.070;14.492;2023-05-10T02:46:49;10.90;99.90
64689;DHT22;62504;46.070;14.492;2023-05-10T02:49:15;10.90;99.90
64689;DHT22;62504;46.070;14.492;2023-05-10T02:51:45;10.60;99.90
64689;DHT22;62504;46.070;14.492;2023-05-10T02:54:18;10.70;99.90
64689;DHT22;62504;46.070;14.492;2023-05-10T02:56:52;10.70;99.90
64689;DHT22;62504;46.070;14.492;2023-05-10T02:59:19;10.70;99.90
64689;DHT22;62504;46.070;14.492;2023-05-10T03:01:45;10.80;99.90
64689;DHT22;62504;46.070;14.492;2023-05-10T03:04:10;10.80;99.90
64689;DHT22;62504;46.070;14.492;2023-05-10T03:06:36;10.90;99.90
64689;DHT22;62504;46.070;14.492;2023-05-10T03:09:02;10.90;99.90
64689;DHT22;62504;46.070;14.492;2023-05-10T03:14:21;11.00;99.90
64689;DHT22;62504;46.070;14.492;2023-05-10T03:17:04;10.90;99.90
64689;DHT22;62504;46.070;14.492;2023-05-10T03:19:43;10.90;99.90
64689;DHT22;62504;46.070;14.492;2023-05-10T03:22:11;10.90;99.90
64689;DHT22;62504;46.070;14.492;2023-05-10T03:24:39;11.00;99.90
64689;DHT22;62504;46.070;14.492;2023-05-10T03:27:07;11.00;99.90
64689;DHT22;62504;46.070;14.492;2023-05-10T03:29:33;11.10;99.90
64689;DHT22;62504;46.070;14.492;2023-05-10T03:31:59;11.10;99.90
64689;DHT22;62504;46.070;14.492;2023-05-10T03:34:25;11.00;99.90
64689;DHT22;62504;46.070;14.492;2023-05-10T03:36:51;11.10;99.90
64689;DHT22;62504;46.070;14.492;2023-05-10T03:39:17;11.10;99.90
64689;DHT22;62504;46.070;14.492;2023-05-10T03:41:43;11.00;99.90
64689;DHT22;62504;46.070;14.492;2023-05-10T03:44:08;11.10;99.90
64689;DHT22;62504;46.070;14.492;2023-05-10T03:46:34;11.10;99.90
64689;DHT22;62504;46.070;14.492;2023-05-10T03:48:59;11.10;99.90
64689;DHT22;62504;46.070;14.492;2023-05-10T03:51:25;11.20;99.90
64689;DHT22;62504;46.070;14.492;2023-05-10T03:53:54;10.90;99.90
64689;DHT22;62504;46.070;14.492;2023-05-10T03:56:20;11.10;99.90
64689;DHT22;62504;46.070;14.492;2023-05-10T03:58:46;11.00;99.90
64689;DHT22;62504;46.070;14.492;2023-05-10T04:01:12;11.00;99.90
64689;DHT22;62504;46.070;14.492;2023-05-10T04:03:37;11.20;99.90
64689;DHT22;62504;46.070;14.492;2023-05-10T04:06:03;11.30;99.90
64689;DHT22;62504;46.070;14.492;2023-05-10T04:08:29;11.30;99.90
64689;DHT22;62504;46.070;14.492;2023-05-10T04:11:05;11.50;99.90
64689;DHT22;62504;46.070;14.492;2023-05-10T04:13:31;11.50;99.90
64689;DHT22;62504;46.070;14.492;2023-05-10T04:15:57;11.50;99.90
64689;DHT22;62504;46.070;14.492;2023-05-10T04:18:23;11.40;99.90
64689;DHT22;62504;46.070;14.492;2023-05-10T04:20:48;11.40;99.90
64689;DHT22;62504;46.070;14.492;2023-05-10T04:23:14;11.40;99.90
64689;DHT22;62504;46.070;14.492;2023-05-10T04:25:42;11.20;99.90
64689;DHT22;62504;46.070;14.492;2023-05-10T04:28:07;11.40;99.90
64689;DHT22;62504;46.070;14.492;2023-05-10T04:30:34;11.40;99.90
64689;DHT22;62504;46.070;14.492;2023-05-10T04:33:00;11.40;99.90
64689;DHT22;62504;46.070;14.492;2023-05-10T04:35:27;11.60;99.90
64689;DHT22;62504;46.070;14.492;2023-05-10T04:37:53;11.50;99.90
64689;DHT22;62504;46.070;14.492;2023-05-10T04:40:19;11.60;99.90
64689;DHT22;62504;46.070;14.492;2023-05-10T04:42:45;11.70;99.90
64689;DHT22;62504;46.070;14.492;2023-05-10T04:45:11;11.60;99.90
64689;DHT22;62504;46.070;14.492;2023-05-10T04:47:37;11.70;99.90
64689;DHT22;62504;46.070;14.492;2023-05-10T04:50:03;11.70;99.90
64689;DHT22;62504;46.070;14.492;2023-05-10T04:52:29;11.50;99.90
64689;DHT22;62504;46.070;14.492;2023-05-10T04:54:54;11.70;99.90
64689;DHT22;62504;46.070;14.492;2023-05-10T04:57:20;11.70;99.90
64689;DHT22;62504;46.070;14.492;2023-05-10T04:59:45;11.70;99.90
64689;DHT22;62504;46.070;14.492;2023-05-10T05:02:11;11.80;99.90
64689;DHT22;62504;46.070;14.492;2023-05-10T05:04:37;11.80;99.90
64689;DHT22;62504;46.070;14.492;2023-05-10T05:07:02;11.70;99.90
64689;DHT22;62504;46.070;14.492;2023-05-10T05:09:28;11.80;99.90
64689;DHT22;62504;46.070;14.492;2023-05-10T05:11:53;12.00;99.90
64689;DHT22;62504;46.070;14.492;2023-05-10T05:14:19;12.20;99.90
64689;DHT22;62504;46.070;14.492;2023-05-10T05:16:53;12.00;99.90
64689;DHT22;62504;46.070;14.492;2023-05-10T05:19:18;11.90;99.90
64689;DHT22;62504;46.070;14.492;2023-05-10T05:21:44;12.00;99.90
64689;DHT22;62504;46.070;14.492;2023-05-10T05:24:10;12.10;99.90
64689;DHT22;62504;46.070;14.492;2023-05-10T05:26:38;12.20;99.90
64689;DHT22;62504;46.070;14.492;2023-05-10T05:29:03;12.20;99.90
64689;DHT22;62504;46.070;14.492;2023-05-10T05:31:29;12.20;99.90
64689;DHT22;62504;46.070;14.492;2023-05-10T05:33:55;12.20;99.90
64689;DHT22;62504;46.070;14.492;2023-05-10T05:36:21;12.20;99.90
64689;DHT22;62504;46.070;14.492;2023-05-10T05:38:47;12.30;99.90
64689;DHT22;62504;46.070;14.492;2023-05-10T05:41:13;12.20;99.90
64689;DHT22;62504;46.070;14.492;2023-05-10T05:43:38;12.30;99.90
64689;DHT22;62504;46.070;14.492;2023-05-10T05:46:04;12.30;99.90
64689;DHT22;62504;46.070;14.492;2023-05-10T05:48:30;12.30;99.90
64689;DHT22;62504;46.070;14.492;2023-05-10T05:50:57;12.20;99.90
64689;DHT22;62504;46.070;14.492;2023-05-10T05:53:23;12.20;99.90
64689;DHT22;62504;46.070;14.492;2023-05-10T05:58:18;12.40;99.90
64689;DHT22;62504;46.070;14.492;2023-05-10T06:00:44;12.40;99.90
64689;DHT22;62504;46.070;14.492;2023-05-10T06:03:10;12.40;99.90
64689;DHT22;62504;46.070;14.492;2023-05-10T06:05:35;12.40;99.90
64689;DHT22;62504;46.070;14.492;2023-05-10T06:08:01;12.30;99.90
64689;DHT22;62504;46.070;14.492;2023-05-10T06:10:27;12.40;99.90
64689;DHT22;62504;46.070;14.492;2023-05-10T06:12:52;12.40;99.90
64689;DHT22;62504;46.070;14.492;2023-05-10T06:15:18;12.50;99.90
64689;DHT22;62504;46.070;14.492;2023-05-10T06:17:44;12.50;99.90
64689;DHT22;62504;46.070;14.492;2023-05-10T06:20:10;12.50;99.90
64689;DHT22;62504;46.070;14.492;2023-05-10T06:22:36;12.50;99.90
64689;DHT22;62504;46.070;14.492;2023-05-10T06:25:01;12.70;99.90
64689;DHT22;62504;46.070;14.492;2023-05-10T06:27:27;12.40;99.90
64689;DHT22;62504;46.070;14.492;2023-05-10T06:29:53;12.60;99.90
64689;DHT22;62504;46.070;14.492;2023-05-10T06:32:19;12.70;99.90
64689;DHT22;62504;46.070;14.492;2023-05-10T06:34:44;12.70;99.90
64689;DHT22;62504;46.070;14.492;2023-05-10T06:37:11;12.70;99.90
64689;DHT22;62504;46.070;14.492;2023-05-10T06:39:37;12.70;99.90
64689;DHT22;62504;46.070;14.492;2023-05-10T06:42:03;12.90;99.90
64689;DHT22;62504;46.070;14.492;2023-05-10T06:44:29;12.90;99.90
64689;DHT22;62504;46.070;14.492;2023-05-10T06:46:55;13.00;99.90
64689;DHT22;62504;46.070;14.492;2023-05-10T06:49:21;13.00;99.90
64689;DHT22;62504;46.070;14.492;2023-05-10T06:51:47;13.20;99.90
64689;DHT22;62504;46.070;14.492;2023-05-10T06:54:12;13.30;99.90
64689;DHT22;62504;46.070;14.492;2023-05-10T06:56:38;13.40;99.90
64689;DHT22;62504;46.070;14.492;2023-05-10T06:59:03;13.40;99.90
64689;DHT22;62504;46.070;14.492;2023-05-10T07:01:29;13.40;99.90
64689;DHT22;62504;46.070;14.492;2023-05-10T07:03:54;13.40;99.90
64689;DHT22;62504;46.070;14.492;2023-05-10T07:06:20;13.50;99.90
64689;DHT22;62504;46.070;14.492;2023-05-10T07:08:46;13.50;99.90
64689;DHT22;62504;46.070;14.492;2023-05-10T07:11:11;13.50;99.90
64689;DHT22;62504;46.070;14.492;2023-05-10T07:13:37;13.60;99.90
64689;DHT22;62504;46.070;14.492;2023-05-10T07:16:04;13.60;99.90
64689;DHT22;62504;46.070;14.492;2023-05-10T07:18:31;13.50;99.90
64689;DHT22;62504;46.070;14.492;2023-05-10T07:20:57;13.60;99.90
64689;DHT22;62504;46.070;14.492;2023-05-10T07:23:23;13.60;99.90
64689;DHT22;62504;46.070;14.492;2023-05-10T07:25:49;13.60;99.90
64689;DHT22;62504;46.070;14.492;2023-05-10T07:28:16;13.80;99.90
64689;DHT22;62504;46.070;14.492;2023-05-10T07:30:42;13.70;99.90
64689;DHT22;62504;46.070;14.492;2023-05-10T07:33:09;13.80;99.90
64689;DHT22;62504;46.070;14.492;2023-05-10T07:35:35;13.90;99.90
64689;DHT22;62504;46.070;14.492;2023-05-10T07:38:01;14.00;99.90
64689;DHT22;62504;46.070;14.492;2023-05-10T07:40:27;14.20;99.90
64689;DHT22;62504;46.070;14.492;2023-05-10T07:42:53;14.00;99.90
64689;DHT22;62504;46.070;14.492;2023-05-10T07:45:18;14.10;99.90
64689;DHT22;62504;46.070;14.492;2023-05-10T07:47:44;14.20;99.90
64689;DHT22;62504;46.070;14.492;2023-05-10T07:50:09;14.00;99.90
64689;DHT22;62504;46.070;14.492;2023-05-10T07:52:35;14.00;99.90
64689;DHT22;62504;46.070;14.492;2023-05-10T07:55:01;13.90;99.90
64689;DHT22;62504;46.070;14.492;2023-05-10T07:57:27;14.00;99.90
64689;DHT22;62504;46.070;14.492;2023-05-10T07:59:52;14.30;99.90
64689;DHT22;62504;46.070;14.492;2023-05-10T08:02:18;14.20;99.90
64689;DHT22;62504;46.070;14.492;2023-05-10T08:04:43;14.00;99.90
64689;DHT22;62504;46.070;14.492;2023-05-10T08:07:09;14.30;99.90
64689;DHT22;62504;46.070;14.492;2023-05-10T08:09:34;14.50;99.90
64689;DHT22;62504;46.070;14.492;2023-05-10T08:12:01;14.60;99.90
64689;DHT22;62504;46.070;14.492;2023-05-10T08:14:28;14.60;99.90
64689;DHT22;62504;46.070;14.492;2023-05-10T08:16:54;14.50;99.90
64689;DHT22;62504;46.070;14.492;2023-05-10T08:19:20;14.50;99.90
64689;DHT22;62504;46.070;14.492;2023-05-10T08:21:46;14.60;99.90
64689;DHT22;62504;46.070;14.492;2023-05-10T08:24:12;14.50;99.90
64689;DHT22;62504;46.070;14.492;2023-05-10T08:26:38;14.60;99.90
64689;DHT22;62504;46.070;14.492;2023-05-10T08:29:03;14.40;99.90
64689;DHT22;62504;46.070;14.492;2023-05-10T08:31:29;14.50;99.90
64689;DHT22;62504;46.070;14.492;2023-05-10T08:33:55;14.70;99.90
64689;DHT22;62504;46.070;14.492;2023-05-10T08:36:20;14.70;99.90
64689;DHT22;62504;46.070;14.492;2023-05-10T08:38:53;14.70;99.90
64689;DHT22;62504;46.070;14.492;2023-05-10T08:41:22;14.70;99.90
64689;DHT22;62504;46.070;14.492;2023-05-10T08:43:50;14.70;99.90
64689;DHT22;62504;46.070;14.492;2023-05-10T08:46:17;14.80;99.90
64689;DHT22;62504;46.070;14.492;2023-05-10T08:48:45;14.70;99.90
64689;DHT22;62504;46.070;14.492;2023-05-10T08:51:18;14.80;99.90
64689;DHT22;62504;46.070;14.492;2023-05-10T08:53:45;14.60;99.90
64689;DHT22;62504;46.070;14.492;2023-05-10T08:56:11;14.60;99.90
64689;DHT22;62504;46.070;14.492;2023-05-10T08:58:38;14.60;99.90
64689;DHT22;62504;46.070;14.492;2023-05-10T09:01:05;14.70;99.90
64689;DHT22;62504;46.070;14.492;2023-05-10T09:03:31;14.70;99.90
64689;DHT22;62504;46.070;14.492;2023-05-10T09:05:57;14.70;99.90
64689;DHT22;62504;46.070;14.492;2023-05-10T09:08:25;14.70;99.90
64689;DHT22;62504;46.070;14.492;2023-05-10T09:10:51;14.90;99.90
64689;DHT22;62504;46.070;14.492;2023-05-10T09:13:18;14.80;99.90
64689;DHT22;62504;46.070;14.492;2023-05-10T09:15:44;15.00;99.90
64689;DHT22;62504;46.070;14.492;2023-05-10T09:18:10;14.80;99.90
64689;DHT22;62504;46.070;14.492;2023-05-10T09:20:36;14.70;99.90
64689;DHT22;62504;46.070;14.492;2023-05-10T09:23:02;14.80;99.90
64689;DHT22;62504;46.070;14.492;2023-05-10T09:25:27;14.80;99.90
64689;DHT22;62504;46.070;14.492;2023-05-10T09:27:53;14.70;99.90
64689;DHT22;62504;46.070;14.492;2023-05-10T09:32:51;14.40;99.90
64689;DHT22;62504;46.070;14.492;2023-05-10T09:35:21;14.40;99.90
64689;DHT22;62504;46.070;14.492;2023-05-10T09:37:49;14.40;99.90
64689;DHT22;62504;46.070;14.492;2023-05-10T09:40:17;14.40;99.90
64689;DHT22;62504;46.070;14.492;2023-05-10T09:43:02;14.60;99.90
64689;DHT22;62504;46.070;14.492;2023-05-10T09:45:31;14.40;99.90
64689;DHT22;62504;46.070;14.492;2023-05-10T09:47:58;14.50;99.90
64689;DHT22;62504;46.070;14.492;2023-05-10T09:50:24;14.30;99.90
64689;DHT22;62504;46.070;14.492;2023-05-10T09:52:57;14.40;99.90
64689;DHT22;62504;46.070;14.492;2023-05-10T09:55:25;14.40;99.90
64689;DHT22;62504;46.070;14.492;2023-05-10T09:58:00;14.30;99.90
64689;DHT22;62504;46.070;14.492;2023-05-10T10:00:27;14.20;99.90
64689;DHT22;62504;46.070;14.492;2023-05-10T10:02:58;14.30;99.90
64689;DHT22;62504;46.070;14.492;2023-05-10T10:05:32;14.30;99.90
64689;DHT22;62504;46.070;14.492;2023-05-10T10:07:58;14.20;99.90
64689;DHT22;62504;46.070;14.492;2023-05-10T10:10:25;14.20;99.90
64689;DHT22;62504;46.070;14.492;2023-05-10T10:12:51;14.30;99.90
64689;DHT22;62504;46.070;14.492;2023-05-10T10:15:17;14.30;99.90
64689;DHT22;62504;46.070;14.492;2023-05-10T10:17:43;14.30;99.90
64689;DHT22;62504;46.070;14.492;2023-05-10T10:20:10;14.30;99.90
64689;DHT22;62504;46.070;14.492;2023-05-10T10:22:36;14.20;99.90
64689;DHT22;62504;46.070;14.492;2023-05-10T10:25:04;14.20;99.90
64689;DHT22;62504;46.070;14.492;2023-05-10T10:35:39;14.10;99.90
64689;DHT22;62504;46.070;14.492;2023-05-10T10:38:08;14.10;99.90
64689;DHT22;62504;46.070;14.492;2023-05-10T10:40:34;14.00;99.90
64689;DHT22;62504;46.070;14.492;2023-05-10T10:43:21;13.80;99.90
64689;DHT22;62504;46.070;14.492;2023-05-10T10:46:15;13.80;99.90
64689;DHT22;62504;46.070;14.492;2023-05-10T10:48:48;13.80;99.90
64689;DHT22;62504;46.070;14.492;2023-05-10T10:51:14;13.90;99.90
64689;DHT22;62504;46.070;14.492;2023-05-10T10:53:40;14.00;99.90
64689;DHT22;62504;46.070;14.492;2023-05-10T10:56:11;14.00;99.90
64689;DHT22;62504;46.070;14.492;2023-05-10T10:58:39;14.10;99.90
64689;DHT22;62504;46.070;14.492;2023-05-10T11:01:11;14.10;99.90
64689;DHT22;62504;46.070;14.492;2023-05-10T11:03:37;14.20;99.90
64689;DHT22;62504;46.070;14.492;2023-05-10T11:06:03;14.10;99.90
64689;DHT22;62504;46.070;14.492;2023-05-10T11:08:30;14.10;99.90
64689;DHT22;62504;46.070;14.492;2023-05-10T11:13:33;14.00;99.90
64689;DHT22;62504;46.070;14.492;2023-05-10T11:18:37;14.00;99.90
64689;DHT22;62504;46.070;14.492;2023-05-10T11:21:03;14.20;99.90
64689;DHT22;62504;46.070;14.492;2023-05-10T11:23:50;13.90;99.90
64689;DHT22;62504;46.070;14.492;2023-05-10T11:26:16;14.00;99.90
64689;DHT22;62504;46.070;14.492;2023-05-10T11:28:47;14.00;99.90
64689;DHT22;62504;46.070;14.492;2023-05-10T11:31:14;14.00;99.90
64689;DHT22;62504;46.070;14.492;2023-05-10T11:33:50;14.00;99.90
64689;DHT22;62504;46.070;14.492;2023-05-10T11:36:33;14.10;99.90
64689;DHT22;62504;46.070;14.492;2023-05-10T11:38:59;14.00;99.90
64689;DHT22;62504;46.070;14.492;2023-05-10T11:41:26;14.00;99.90
64689;DHT22;62504;46.070;14.492;2023-05-10T11:43:55;13.90;99.90
64689;DHT22;62504;46.070;14.492;2023-05-10T11:46:23;14.00;99.90
64689;DHT22;62504;46.070;14.492;2023-05-10T11:48:51;14.00;99.90
64689;DHT22;62504;46.070;14.492;2023-05-10T11:51:21;14.00;99.90
64689;DHT22;62504;46.070;14.492;2023-05-10T11:53:47;13.90;99.90
64689;DHT22;62504;46.070;14.492;2023-05-10T11:56:13;13.90;99.90
64689;DHT22;62504;46.070;14.492;2023-05-10T11:58:39;13.80;99.90
64689;DHT22;62504;46.070;14.492;2023-05-10T12:01:06;13.90;99.90
64689;DHT22;62504;46.070;14.492;2023-05-10T12:03:33;13.80;99.90
64689;DHT22;62504;46.070;14.492;2023-05-10T12:06:00;13.80;99.90
64689;DHT22;62504;46.070;14.492;2023-05-10T12:08:28;13.80;99.90
64689;DHT22;62504;46.070;14.492;2023-05-10T12:11:03;13.90;99.90
64689;DHT22;62504;46.070;14.492;2023-05-10T12:13:29;13.80;99.90
64689;DHT22;62504;46.070;14.492;2023-05-10T12:15:57;13.90;99.90
64689;DHT22;62504;46.070;14.492;2023-05-10T12:18:23;13.90;99.90
64689;DHT22;62504;46.070;14.492;2023-05-10T12:20:52;13.60;99.90
64689;DHT22;62504;46.070;14.492;2023-05-10T12:23:21;13.70;99.90
64689;DHT22;62504;46.070;14.492;2023-05-10T12:25:47;13.60;99.90
64689;DHT22;62504;46.070;14.492;2023-05-10T12:28:12;13.60;99.90
64689;DHT22;62504;46.070;14.492;2023-05-10T12:30:39;13.80;99.90
64689;DHT22;62504;46.070;14.492;2023-05-10T12:33:09;13.80;99.90
64689;DHT22;62504;46.070;14.492;2023-05-10T12:36:08;13.70;99.90
64689;DHT22;62504;46.070;14.492;2023-05-10T12:38:42;13.80;99.90
64689;DHT22;62504;46.070;14.492;2023-05-10T12:41:16;13.80;99.90
64689;DHT22;62504;46.070;14.492;2023-05-10T12:43:42;13.70;99.90
64689;DHT22;62504;46.070;14.492;2023-05-10T12:48:35;13.70;99.90
64689;DHT22;62504;46.070;14.492;2023-05-10T12:51:02;13.70;99.90
64689;DHT22;62504;46.070;14.492;2023-05-10T12:53:28;13.70;99.90
64689;DHT22;62504;46.070;14.492;2023-05-10T12:55:53;13.80;99.90
64689;DHT22;62504;46.070;14.492;2023-05-10T12:58:19;13.70;99.90
64689;DHT22;62504;46.070;14.492;2023-05-10T13:00:45;13.70;99.90
64689;DHT22;62504;46.070;14.492;2023-05-10T13:03:11;13.70;99.90
64689;DHT22;62504;46.070;14.492;2023-05-10T13:05:37;13.80;99.90
64689;DHT22;62504;46.070;14.492;2023-05-10T13:08:03;13.70;99.90
64689;DHT22;62504;46.070;14.492;2023-05-10T13:10:31;13.70;99.90
64689;DHT22;62504;46.070;14.492;2023-05-10T13:12:58;13.70;99.90
64689;DHT22;62504;46.070;14.492;2023-05-10T13:15:24;13.80;99.90
64689;DHT22;62504;46.070;14.492;2023-05-10T13:17:50;13.80;99.90
64689;DHT22;62504;46.070;14.492;2023-05-10T13:20:16;13.80;99.90
64689;DHT22;62504;46.070;14.492;2023-05-10T13:22:43;13.70;99.90
64689;DHT22;62504;46.070;14.492;2023-05-10T13:25:09;13.70;99.90
64689;DHT22;62504;46.070;14.492;2023-05-10T13:27:35;13.70;99.90
64689;DHT22;62504;46.070;14.492;2023-05-10T13:30:01;13.80;99.90
64689;DHT22;62504;46.070;14.492;2023-05-10T13:32:28;13.80;99.90
64689;DHT22;62504;46.070;14.492;2023-05-10T13:34:54;13.80;99.90
64689;DHT22;62504;46.070;14.492;2023-05-10T13:37:20;13.80;99.90
64689;DHT22;62504;46.070;14.492;2023-05-10T13:39:46;13.80;99.90
64689;DHT22;62504;46.070;14.492;2023-05-10T13:42:12;13.80;99.90
64689;DHT22;62504;46.070;14.492;2023-05-10T13:44:38;13.80;99.90
64689;DHT22;62504;46.070;14.492;2023-05-10T13:47:04;13.70;99.90
64689;DHT22;62504;46.070;14.492;2023-05-10T13:49:30;13.90;99.90
64689;DHT22;62504;46.070;14.492;2023-05-10T13:51:55;13.80;99.90
64689;DHT22;62504;46.070;14.492;2023-05-10T13:54:21;14.10;99.90
64689;DHT22;62504;46.070;14.492;2023-05-10T13:56:47;14.10;99.90
64689;DHT22;62504;46.070;14.492;2023-05-10T13:59:14;14.10;99.90
64689;DHT22;62504;46.070;14.492;2023-05-10T14:01:40;14.00;99.90
64689;DHT22;62504;46.070;14.492;2023-05-10T14:04:05;14.00;99.90
64689;DHT22;62504;46.070;14.492;2023-05-10T14:06:32;14.00;99.90
64689;DHT22;62504;46.070;14.492;2023-05-10T14:08:59;13.80;99.90
64689;DHT22;62504;46.070;14.492;2023-05-10T14:11:24;13.60;99.90
64689;DHT22;62504;46.070;14.492;2023-05-10T14:13:50;13.80;99.90
64689;DHT22;62504;46.070;14.492;2023-05-10T14:16:15;13.90;99.90
64689;DHT22;62504;46.070;14.492;2023-05-10T14:18:41;13.70;99.90
64689;DHT22;62504;46.070;14.492;2023-05-10T14:21:07;13.80;99.90
64689;DHT22;62504;46.070;14.492;2023-05-10T14:23:32;13.70;99.90
64689;DHT22;62504;46.070;14.492;2023-05-10T14:25:58;13.80;99.90
64689;DHT22;62504;46.070;14.492;2023-05-10T14:28:24;13.90;99.90
64689;DHT22;62504;46.070;14.492;2023-05-10T14:30:50;13.80;99.90
64689;DHT22;62504;46.070;14.492;2023-05-10T14:33:16;14.00;99.90
64689;DHT22;62504;46.070;14.492;2023-05-10T14:35:42;13.90;99.90
64689;DHT22;62504;46.070;14.492;2023-05-10T14:38:08;14.00;99.90
64689;DHT22;62504;46.070;14.492;2023-05-10T14:40:33;14.00;99.90
64689;DHT22;62504;46.070;14.492;2023-05-10T14:43:00;14.10;99.90
64689;DHT22;62504;46.070;14.492;2023-05-10T14:45:25;14.00;99.90
64689;DHT22;62504;46.070;14.492;2023-05-10T14:47:51;14.00;99.90
64689;DHT22;62504;46.070;14.492;2023-05-10T14:50:16;14.00;99.90
64689;DHT22;62504;46.070;14.492;2023-05-10T14:52:43;13.80;99.90
64689;DHT22;62504;46.070;14.492;2023-05-10T14:55:09;13.80;99.90
64689;DHT22;62504;46.070;14.492;2023-05-10T14:57:35;13.90;99.90
64689;DHT22;62504;46.070;14.492;2023-05-10T15:00:02;13.90;99.90
64689;DHT22;62504;46.070;14.492;2023-05-10T15:02:29;14.00;99.90
64689;DHT22;62504;46.070;14.492;2023-05-10T15:04:54;14.10;99.90
64689;DHT22;62504;46.070;14.492;2023-05-10T15:07:20;13.90;99.90
64689;DHT22;62504;46.070;14.492;2023-05-10T15:09:46;13.90;99.90
64689;DHT22;62504;46.070;14.492;2023-05-10T15:12:11;13.90;99.90
64689;DHT22;62504;46.070;14.492;2023-05-10T15:14:37;13.90;99.90
64689;DHT22;62504;46.070;14.492;2023-05-10T15:17:03;13.80;99.90
64689;DHT22;62504;46.070;14.492;2023-05-10T15:19:29;13.80;99.90
64689;DHT22;62504;46.070;14.492;2023-05-10T15:21:55;13.80;99.90
64689;DHT22;62504;46.070;14.492;2023-05-10T15:24:21;13.90;99.90
64689;DHT22;62504;46.070;14.492;2023-05-10T15:26:47;13.70;99.90
64689;DHT22;62504;46.070;14.492;2023-05-10T15:29:12;13.60;99.90
64689;DHT22;62504;46.070;14.492;2023-05-10T15:31:45;13.70;99.90
64689;DHT22;62504;46.070;14.492;2023-05-10T15:34:11;13.60;99.90
64689;DHT22;62504;46.070;14.492;2023-05-10T15:36:37;13.60;99.90
64689;DHT22;62504;46.070;14.492;2023-05-10T15:39:02;13.40;99.90
64689;DHT22;62504;46.070;14.492;2023-05-10T15:41:29;13.40;99.90
64689;DHT22;62504;46.070;14.492;2023-05-10T15:43:55;13.30;99.90
64689;DHT22;62504;46.070;14.492;2023-05-10T15:46:21;13.20;99.90
64689;DHT22;62504;46.070;14.492;2023-05-10T15:48:46;13.20;99.90
64689;DHT22;62504;46.070;14.492;2023-05-10T15:51:12;13.20;99.90